Time;durP1;ratioP1;P1;durP2;ratioP2;P2;SDS_P1;SDS_P2;PMS_P1;PMS_P2;Temp;Humidity;BMP_temperature;BMP_pressure;BME280_temperature;BME280_humidity;BME280_pressure;Samples;Min_cycle;Max_cycle;Signal;HPM_P1;HPM_P2
2022/05/23 00:01:48;;;;;;;9.73;4.47;;;;;;;16.49;45.98;99817.81;10538289;28;20252;-87
2022/05/23 00:06:51;;;;;;;7.45;5.15;;;;;;;16.68;45.31;99814.75;10505611;28;20198;-88
2022/05/23 00:11:53;;;;;;;7.73;5.33;;;;;;;16.89;44.24;99806.47;10521310;28;20203;-88
2022/05/23 00:16:56;;;;;;;10.07;5.47;;;;;;;16.58;45.55;99801.22;10555099;28;20179;-85
2022/05/23 00:21:59;;;;;;;8.57;5.50;;;;;;;16.18;47.56;99794.22;10537946;28;20222;-87
2022/05/23 00:27:01;;;;;;;12.80;5.60;;;;;;;16.42;46.88;99789.25;10520136;28;20255;-86
2022/05/23 00:37:24;;;;;;;9.77;4.83;;;;;;;15.92;48.83;99788.59;10523148;28;20198;-87
2022/05/23 00:47:52;;;;;;;9.30;5.50;;;;;;;15.97;48.38;99793.97;10538531;28;20182;-86
2022/05/23 00:53:02;;;;;;;8.23;5.90;;;;;;;15.44;49.85;99787.47;10522636;28;20500;-87
2022/05/23 00:58:23;;;;;;;9.50;5.57;;;;;;;16.15;47.77;99777.13;10520474;28;20190;-86
2022/05/23 01:03:25;;;;;;;10.13;5.03;;;;;;;16.56;47.13;99769.50;10536664;28;20193;-84
2022/05/23 01:08:28;;;;;;;9.27;5.88;;;;;;;16.34;47.14;99756.25;10552548;28;20240;-87
2022/05/23 01:13:30;;;;;;;7.57;5.27;;;;;;;16.24;47.57;99739.91;10494688;28;20229;-87
2022/05/23 01:18:33;;;;;;;10.00;5.37;;;;;;;15.82;47.60;99740.97;10477937;28;20260;-87
2022/05/23 01:23:51;;;;;;;7.70;5.50;;;;;;;15.53;48.38;99731.25;10494086;28;20261;-88
2022/05/23 01:29:00;;;;;;;8.47;5.10;;;;;;;15.59;48.08;99724.03;10493589;28;20191;-85
2022/05/23 01:34:16;;;;;;;7.13;5.03;;;;;;;15.70;48.19;99712.81;10479399;28;20198;-86
2022/05/23 01:39:30;;;;;;;10.07;5.27;;;;;;;16.03;48.11;99712.81;10479061;28;20219;-87
2022/05/23 01:44:34;;;;;;;9.70;4.90;;;;;;;16.15;47.35;99715.38;10477698;28;20191;-88
2022/05/23 01:49:54;;;;;;;7.60;5.30;;;;;;;16.20;47.12;99709.38;10527815;28;20195;-84
2022/05/23 01:55:36;;;;;;;9.55;5.10;;;;;;;16.16;47.88;99702.81;10484273;28;20683;-87
2022/05/23 02:01:13;;;;;;;7.80;4.97;;;;;;;16.25;48.29;99693.22;10473870;28;20219;-87
2022/05/23 02:06:21;;;;;;;9.13;5.78;;;;;;;15.94;48.91;99692.41;10500989;28;20195;-87
2022/05/23 02:11:27;;;;;;;9.68;4.63;;;;;;;15.97;48.30;99685.97;10497346;28;20235;-87
2022/05/23 02:16:30;;;;;;;7.87;4.87;;;;;;;16.15;48.32;99681.28;10541571;28;20186;-86
2022/05/23 02:21:34;;;;;;;10.90;5.25;;;;;;;15.50;49.63;99678.00;10563548;28;20292;-88
2022/05/23 02:26:36;;;;;;;8.38;5.18;;;;;;;15.52;49.63;99673.63;10532608;28;20668;-87
2022/05/23 02:31:52;;;;;;;7.70;4.50;;;;;;;15.74;49.13;99659.69;10533874;28;20207;-85
2022/05/23 02:36:54;;;;;;;7.68;4.78;;;;;;;15.68;50.47;99649.88;10548464;28;20205;-88
2022/05/23 02:42:10;;;;;;;6.30;4.47;;;;;;;15.43;50.66;99626.81;10548718;28;20302;-86
2022/05/23 02:47:13;;;;;;;5.57;4.80;;;;;;;15.93;49.10;99636.78;10548067;28;20251;-86
2022/05/23 02:52:15;;;;;;;8.07;4.10;;;;;;;16.24;48.13;99631.84;10531523;28;20270;-87
2022/05/23 02:57:31;;;;;;;7.90;4.30;;;;;;;16.24;48.21;99615.59;10533461;28;20189;-88
2022/05/23 03:07:59;;;;;;;8.43;3.93;;;;;;;16.23;48.40;99596.09;10521431;28;20263;-87
2022/05/23 03:13:04;;;;;;;7.78;3.80;;;;;;;16.30;47.77;99582.75;10498182;28;20214;-88
2022/05/23 03:18:06;;;;;;;6.67;4.23;;;;;;;15.97;49.58;99572.25;10532562;28;20241;-85
2022/05/23 03:28:35;;;;;;;9.13;4.35;;;;;;;16.00;48.22;99551.59;10498834;28;20179;-88
2022/05/23 03:33:37;;;;;;;6.03;4.67;;;;;;;15.83;49.08;99557.91;10498864;28;20252;-83
2022/05/23 03:38:40;;;;;;;6.68;4.10;;;;;;;16.13;48.09;99547.25;10501874;28;20483;-85
2022/05/23 03:43:42;;;;;;;6.27;4.23;;;;;;;15.73;49.09;99541.56;10507407;28;20191;-86
2022/05/23 03:48:45;;;;;;;9.00;4.53;;;;;;;16.16;48.36;99526.53;10546692;28;20183;-84
2022/05/23 03:53:47;;;;;;;7.27;4.17;;;;;;;16.21;48.39;99520.50;10528235;28;20206;-85
2022/05/23 03:58:50;;;;;;;10.13;4.28;;;;;;;16.08;48.62;99516.31;10511960;28;20537;-84
2022/05/23 04:03:58;;;;;;;8.73;4.28;;;;;;;16.43;47.80;99507.28;10529562;28;20199;-85
2022/05/23 04:09:07;;;;;;;6.00;4.20;;;;;;;16.26;48.87;99499.47;10513660;28;20236;-86
2022/05/23 04:14:15;;;;;;;5.70;4.27;;;;;;;16.39;48.29;99494.28;10529148;28;20195;-86
2022/05/23 04:19:18;;;;;;;6.80;4.43;;;;;;;16.29;48.43;99492.13;10527938;28;20207;-87
2022/05/23 04:24:40;;;;;;;8.38;4.35;;;;;;;16.17;49.12;99491.22;10530721;28;20182;-87
2022/05/23 04:29:42;;;;;;;7.15;4.20;;;;;;;16.09;49.62;99498.06;10527221;28;20214;-86
2022/05/23 04:35:14;;;;;;;8.83;5.40;;;;;;;16.04;50.03;99498.41;10522688;28;20198;-86
2022/05/23 04:40:25;;;;;;;8.80;4.70;;;;;;;15.95;49.84;99483.72;10577717;28;20691;-84
2022/05/23 04:45:27;;;;;;;5.90;4.10;;;;;;;15.65;50.20;99491.56;10508744;28;20533;-84
2022/05/23 04:51:02;;;;;;;5.87;4.47;;;;;;;16.09;48.75;99477.34;10546371;28;20190;-85
2022/05/23 04:56:13;;;;;;;10.27;5.40;;;;;;;16.75;47.43;99461.16;10485422;28;20220;-84
2022/05/23 05:01:15;;;;;;;9.10;4.53;;;;;;;16.87;47.65;99455.94;10518619;28;20244;-83
2022/05/23 05:06:23;;;;;;;10.13;5.15;;;;;;;16.27;47.83;99460.47;10542045;28;20191;-84
2022/05/23 05:11:25;;;;;;;9.00;4.80;;;;;;;16.36;47.64;99458.09;10540401;28;20221;-84
2022/05/23 05:17:03;;;;;;;9.82;4.78;;;;;;;16.45;48.36;99444.31;10506584;28;20198;-84
2022/05/23 05:22:07;;;;;;;6.13;4.78;;;;;;;16.66;48.16;99443.63;10541601;28;20495;-83
2022/05/23 05:27:29;;;;;;;9.63;4.78;;;;;;;16.41;47.65;99440.63;10497397;28;20239;-83
2022/05/23 05:32:44;;;;;;;6.07;3.95;;;;;;;16.85;47.02;99431.91;10525903;28;20183;-84
2022/05/23 05:37:52;;;;;;;5.10;3.75;;;;;;;16.88;47.06;99429.09;10524185;28;20656;-84
2022/05/23 05:42:58;;;;;;;7.68;4.32;;;;;;;16.88;46.90;99425.44;10509001;28;20206;-83
2022/05/23 05:48:01;;;;;;;7.23;4.13;;;;;;;16.80;46.99;99418.88;10492485;28;20190;-88
2022/05/23 05:53:28;;;;;;;5.93;4.30;;;;;;;16.63;49.65;99415.97;10511947;28;20248;-87
2022/05/23 05:58:33;;;;;;;8.87;4.00;;;;;;;17.00;47.16;99410.06;10501478;28;20187;-88
2022/05/23 06:03:36;;;;;;;5.10;3.25;;;;;;;17.43;46.10;99391.03;10516825;28;20688;-88
2022/05/23 06:14:04;;;;;;;9.95;4.47;;;;;;;17.95;46.06;99381.69;10532751;28;20224;-87
2022/05/23 06:19:19;;;;;;;7.18;3.83;;;;;;;17.87;45.99;99370.69;10518489;28;20191;-88
2022/05/23 06:24:49;;;;;;;3.67;2.97;;;;;;;17.83;46.13;99375.59;10546843;28;20460;-88
2022/05/23 06:29:51;;;;;;;8.13;3.13;;;;;;;17.96;44.34;99376.81;10516175;28;20183;-88
2022/05/23 06:35:15;;;;;;;6.75;2.83;;;;;;;18.32;44.54;99364.13;10551741;28;20195;-89
2022/05/23 06:40:20;;;;;;;3.00;1.67;;;;;;;18.11;42.59;99364.13;10533525;28;20210;-86
2022/05/23 06:45:41;;;;;;;4.65;1.70;;;;;;;18.75;41.78;99358.22;10551237;28;20195;-89
2022/05/23 06:51:10;;;;;;;3.58;1.67;;;;;;;18.84;40.28;99338.63;10518478;28;20195;-87
2022/05/23 06:56:20;;;;;;;2.50;1.73;;;;;;;18.92;41.02;99334.50;10517198;28;20214;-89
2022/05/23 07:01:27;;;;;;;4.22;2.03;;;;;;;18.62;42.87;99325.66;10532789;28;20202;-87
2022/05/23 07:12:23;;;;;;;5.38;1.98;;;;;;;19.16;38.79;99309.06;10535221;28;20191;-88
2022/05/23 07:17:29;;;;;;;3.72;1.70;;;;;;;19.50;40.68;99295.75;10547616;28;20240;-88
2022/05/23 07:22:49;;;;;;;10.52;1.65;;;;;;;19.14;40.71;99300.91;10550456;28;20491;-89
2022/05/23 07:27:52;;;;;;;5.50;1.88;;;;;;;19.40;39.17;99285.19;10514426;28;20191;-87
2022/05/23 07:32:54;;;;;;;4.80;1.90;;;;;;;19.91;39.12;99284.34;10547347;28;20191;-89
2022/05/23 07:38:22;;;;;;;5.60;1.98;;;;;;;19.60;38.78;99272.00;10548491;28;20183;-89
2022/05/23 07:43:25;;;;;;;4.22;1.48;;;;;;;19.82;38.91;99266.03;10529618;28;20263;-89
2022/05/23 07:48:34;;;;;;;6.72;1.73;;;;;;;19.54;40.85;99267.91;10530485;28;20191;-87
2022/05/23 08:04:22;;;;;;;5.68;1.88;;;;;;;19.68;37.81;99267.81;10532098;28;20214;-88
2022/05/23 08:09:26;;;;;;;4.18;1.70;;;;;;;20.24;38.92;99247.59;10513096;28;20194;-88
2022/05/23 08:14:36;;;;;;;1.88;1.30;;;;;;;20.27;38.76;99241.84;10529450;28;20244;-89
2022/05/23 08:19:45;;;;;;;4.60;1.70;;;;;;;19.49;37.48;99236.16;10513909;28;20187;-88
2022/05/23 08:24:53;;;;;;;1.95;1.40;;;;;;;20.90;36.86;99222.16;10512722;28;20186;-88
2022/05/23 08:29:55;;;;;;;4.97;1.60;;;;;;;21.43;36.15;99211.88;10528390;28;20228;-89
2022/05/23 08:34:57;;;;;;;1.88;1.33;;;;;;;21.56;34.51;99220.63;10528277;28;20187;-88
2022/05/23 08:40:00;;;;;;;2.25;1.77;;;;;;;20.99;36.54;99222.41;10510779;28;20194;-89
2022/05/23 08:45:14;;;;;;;4.82;1.20;;;;;;;21.00;34.98;99215.44;10494869;28;20195;-90
2022/05/23 08:50:41;;;;;;;1.90;1.50;;;;;;;21.34;34.43;99217.34;10510536;28;20236;-87
2022/05/23 08:55:52;;;;;;;4.43;1.33;;;;;;;21.54;34.66;99212.47;10480446;28;20214;-83
2022/05/23 09:01:31;;;;;;;1.70;1.30;;;;;;;21.05;34.98;99205.53;10508069;28;20214;-84
2022/05/23 09:06:39;;;;;;;3.13;1.33;;;;;;;21.43;34.99;99203.25;10508991;28;20248;-84
2022/05/23 09:11:46;;;;;;;1.60;1.33;;;;;;;21.04;34.55;99193.28;10509281;28;20247;-84
2022/05/23 09:16:50;;;;;;;1.98;1.10;;;;;;;21.49;34.50;99179.38;10525826;28;20220;-83
2022/05/23 09:22:19;;;;;;;5.32;1.70;;;;;;;22.35;33.44;99175.59;10508970;28;20518;-84
2022/05/23 09:27:31;;;;;;;3.45;1.42;;;;;;;21.40;35.52;99164.81;10525220;28;20224;-84
2022/05/23 09:32:37;;;;;;;4.68;1.48;;;;;;;21.88;33.93;99148.28;10542783;28;20178;-83
2022/05/23 09:37:43;;;;;;;2.50;1.52;;;;;;;21.92;34.30;99137.56;10524811;28;20195;-83
2022/05/23 09:48:08;;;;;;;3.75;1.20;;;;;;;22.13;33.79;99125.63;10510602;28;20190;-82
2022/05/23 09:53:22;;;;;;;2.50;1.10;;;;;;;22.26;33.85;99117.16;10525226;28;20244;-84
2022/05/23 09:58:31;;;;;;;4.82;1.33;;;;;;;22.63;32.86;99124.53;10508478;28;20204;-84
2022/05/23 10:03:35;;;;;;;4.85;1.35;;;;;;;21.65;34.42;99124.19;10508523;28;20206;-84
2022/05/23 10:08:48;;;;;;;1.55;1.27;;;;;;;22.02;33.64;99114.41;10508644;28;20178;-83
2022/05/23 10:14:06;;;;;;;7.82;1.70;;;;;;;22.22;33.43;99093.47;10510016;28;20244;-83
2022/05/23 10:19:08;;;;;;;1.77;1.05;;;;;;;23.12;32.90;99088.78;10508145;28;20236;-84
2022/05/23 10:24:19;;;;;;;5.93;1.23;;;;;;;22.30;33.28;99067.03;10521620;28;20210;-84
2022/05/23 10:29:52;;;;;;;3.92;1.20;;;;;;;21.92;34.85;99077.31;10541337;28;20583;-84
2022/05/23 10:35:02;;;;;;;4.25;0.82;;;;;;;22.53;33.13;99063.16;10541098;28;20648;-83
2022/05/23 10:45:33;;;;;;;3.03;0.82;;;;;;;22.33;33.14;99060.38;10534376;28;20198;-84
2022/05/23 10:50:52;;;;;;;2.92;0.93;;;;;;;22.86;32.28;99047.56;10549288;28;20186;-84
2022/05/23 10:55:57;;;;;;;2.55;1.20;;;;;;;23.24;32.13;99033.41;10549159;28;20206;-85
2022/05/23 11:01:14;;;;;;;4.13;1.10;;;;;;;24.06;30.46;99015.78;10547974;28;20822;-83
2022/05/23 11:06:29;;;;;;;6.03;1.13;;;;;;;24.43;30.64;99009.22;10530893;28;20195;-84
2022/05/23 11:11:37;;;;;;;7.30;1.73;;;;;;;24.34;30.51;98997.56;10513599;28;20594;-84
2022/05/23 11:16:50;;;;;;;34.72;4.35;;;;;;;24.02;31.27;98986.28;10547013;28;20216;-85
2022/05/23 11:21:58;;;;;;;3.05;1.08;;;;;;;23.88;30.96;98962.47;10546995;28;20557;-85
2022/05/23 11:38:11;;;;;;;3.50;0.80;;;;;;;23.84;30.40;98944.50;10515350;28;20194;-84
2022/05/23 11:43:20;;;;;;;3.78;1.13;;;;;;;23.88;30.44;98927.13;10514240;28;20752;-84
2022/05/23 11:48:41;;;;;;;2.10;0.93;;;;;;;24.21;29.83;98921.91;10513005;28;20194;-83
2022/05/23 11:53:54;;;;;;;4.25;0.82;;;;;;;24.29;30.43;98912.59;10511944;28;20210;-86
2022/05/23 11:58:57;;;;;;;6.95;1.58;;;;;;;24.06;30.66;98915.84;10546681;28;20229;-84
2022/05/23 12:04:07;;;;;;;4.28;1.13;;;;;;;23.69;31.97;98913.75;10495406;28;20226;-83
2022/05/23 12:09:12;;;;;;;7.68;1.95;;;;;;;24.00;32.13;98893.84;10495062;28;20194;-84
2022/05/23 12:14:21;;;;;;;5.25;1.45;;;;;;;23.81;32.25;98898.59;10527881;28;20187;-85
2022/05/23 12:19:38;;;;;;;4.97;1.00;;;;;;;24.89;31.49;98885.75;10512553;28;20236;-88
2022/05/23 12:25:01;;;;;;;2.70;1.30;;;;;;;24.50;31.68;98884.28;10528105;28;20218;-88
2022/05/23 12:30:16;;;;;;;3.28;1.20;;;;;;;24.57;31.52;98870.44;10511762;28;20187;-88
2022/05/23 12:35:39;;;;;;;5.00;1.45;;;;;;;25.10;32.22;98856.13;10511207;28;20537;-88
2022/05/23 12:41:16;;;;;;;3.95;1.42;;;;;;;24.55;32.68;98855.72;10527375;28;20198;-88
2022/05/23 12:46:57;;;;;;;2.88;1.30;;;;;;;24.55;32.96;98846.25;10544880;28;20175;-87
2022/05/23 12:52:28;;;;;;;3.42;1.00;;;;;;;24.08;33.53;98837.63;10527171;28;20598;-87
2022/05/23 12:57:39;;;;;;;1.35;0.90;;;;;;;24.86;32.69;98817.53;10526333;28;20186;-87
2022/05/23 13:03:07;;;;;;;1.83;1.10;;;;;;;24.27;33.31;98825.88;10526257;28;20210;-88
2022/05/23 13:08:15;;;;;;;2.33;1.50;;;;;;;24.58;32.48;98828.84;10527094;28;20208;-88
2022/05/23 13:13:45;;;;;;;3.03;1.20;;;;;;;23.99;33.65;98823.16;10525879;28;20586;-86
2022/05/23 13:24:08;;;;;;;7.45;2.17;;;;;;;23.64;34.71;98820.25;10540374;28;20287;-89
2022/05/23 13:29:12;;;;;;;4.47;1.20;;;;;;;23.68;34.61;98814.38;10526254;28;20595;-87
2022/05/23 13:34:16;;;;;;;6.00;1.67;;;;;;;23.80;34.86;98817.22;10509206;28;20194;-87
2022/05/23 13:39:20;;;;;;;4.00;1.42;;;;;;;23.60;35.16;98822.38;10542757;28;20183;-89
2022/05/23 13:44:28;;;;;;;2.63;1.42;;;;;;;23.49;35.92;98819.06;10543187;28;20210;-89
2022/05/23 13:49:38;;;;;;;3.92;1.83;;;;;;;23.14;37.25;98816.09;10548367;28;20182;-85
2022/05/23 13:58:43;;;;;;;4.95;1.92;;;;;;;22.76;38.53;98818.06;10622030;27;20575;-89
2022/05/23 14:03:51;;;;;;;4.38;1.95;;;;;;;23.27;37.32;98800.91;10580426;28;20545;-88
2022/05/23 14:08:57;;;;;;;4.88;2.28;;;;;;;22.62;38.78;98804.13;10561902;28;20540;-88
2022/05/23 14:14:21;;;;;;;4.55;2.00;;;;;;;22.94;39.13;98789.56;10545139;28;20206;-88
2022/05/23 14:19:27;;;;;;;3.15;2.30;;;;;;;22.20;41.45;98792.56;10502361;27;20194;-87
2022/05/23 14:24:39;;;;;;;4.25;2.22;;;;;;;21.23;47.89;98792.56;10475233;28;20653;-86
2022/05/23 14:29:44;;;;;;;7.60;2.03;;;;;;;21.44;47.68;98775.72;10493511;28;20195;-87
2022/05/23 14:34:47;;;;;;;5.57;3.58;;;;;;;21.96;48.73;98771.09;10460369;28;20276;-89
2022/05/23 14:39:50;;;;;;;7.50;3.42;;;;;;;21.91;50.55;98763.00;10493554;28;20203;-85
2022/05/23 14:45:12;;;;;;;6.82;3.15;;;;;;;21.81;53.07;98741.97;10476519;28;20588;-86
2022/05/23 14:50:20;;;;;;;14.10;4.00;;;;;;;21.70;55.75;98742.28;10476899;28;20180;-85
2022/05/23 14:55:24;;;;;;;7.13;3.33;;;;;;;21.50;54.10;98715.75;10482965;28;20223;-86
2022/05/23 15:00:38;;;;;;;5.78;3.65;;;;;;;21.43;52.80;98704.50;10493275;28;20245;-86
2022/05/23 15:05:41;;;;;;;8.13;3.33;;;;;;;22.38;53.44;98695.25;10490814;28;20203;-87
2022/05/23 15:10:43;;;;;;;9.38;3.88;;;;;;;22.35;54.72;98683.91;10452298;28;20219;-86
2022/05/23 15:15:46;;;;;;;8.15;4.28;;;;;;;22.12;54.98;98679.25;10449337;28;20211;-86
2022/05/23 15:20:48;;;;;;;7.03;3.35;;;;;;;22.51;52.21;98660.84;10465497;28;20188;-86
2022/05/23 15:26:03;;;;;;;4.47;3.60;;;;;;;22.65;50.29;98662.47;10464408;28;20241;-88
2022/05/23 15:31:11;;;;;;;9.65;4.18;;;;;;;22.65;52.99;98650.97;10478453;28;20196;-87
2022/05/23 15:36:13;;;;;;;4.43;3.22;;;;;;;22.47;52.31;98643.72;10447180;28;20224;-88
2022/05/23 15:41:16;;;;;;;7.97;3.28;;;;;;;22.00;53.63;98637.75;10447726;28;20176;-88
2022/05/23 15:46:23;;;;;;;10.32;4.20;;;;;;;21.88;55.03;98626.22;10446844;28;20245;-89
2022/05/23 15:51:28;;;;;;;5.75;3.90;;;;;;;22.19;52.56;98601.56;10447061;28;20585;-88
2022/05/23 15:56:31;;;;;;;8.50;3.75;;;;;;;22.31;54.08;98586.41;10462997;28;20223;-90
2022/05/23 16:01:34;;;;;;;6.43;4.35;;;;;;;22.09;54.53;98576.88;10429767;28;20261;-87
2022/05/23 16:06:36;;;;;;;10.18;4.25;;;;;;;21.72;54.93;98602.13;10445797;28;20545;-87
2022/05/23 16:11:42;;;;;;;10.88;5.38;;;;;;;21.79;55.91;98607.63;10462363;28;20188;-87
2022/05/23 16:16:48;;;;;;;11.07;7.05;;;;;;;21.12;59.11;98618.06;10462815;28;20277;-88
2022/05/23 16:21:53;;;;;;;17.08;8.73;;;;;;;19.03;68.57;98704.16;10461705;28;20654;-89
2022/05/23 16:26:58;;;;;;;14.02;7.35;;;;;;;18.29;71.55;98713.78;10470444;28;20264;-86
2022/05/23 16:32:01;;;;;;;8.30;6.22;;;;;;;18.61;70.20;98697.06;10485494;28;20491;-85
2022/05/23 16:37:04;;;;;;;9.60;5.68;;;;;;;18.15;70.84;98686.25;10476053;28;20219;-86
2022/05/23 16:42:06;;;;;;;8.77;4.43;;;;;;;17.93;71.13;98676.34;10470430;28;20487;-86
2022/05/23 16:47:08;;;;;;;7.90;3.10;;;;;;;17.80;70.50;98675.28;10485791;28;20716;-89
2022/05/23 16:52:10;;;;;;;4.75;3.00;;;;;;;18.29;69.64;98679.56;10468514;28;20211;-87
2022/05/23 16:57:20;;;;;;;4.03;2.60;;;;;;;18.15;69.00;98674.84;10486710;28;20223;-87
2022/05/23 17:02:22;;;;;;;3.03;1.92;;;;;;;18.84;66.29;98659.19;10469466;28;20264;-89
2022/05/23 17:07:27;;;;;;;4.40;2.35;;;;;;;19.26;66.08;98649.09;10484535;28;20183;-87
2022/05/23 17:12:29;;;;;;;3.45;1.88;;;;;;;19.64;65.13;98641.06;10485033;28;20579;-86
2022/05/23 17:17:31;;;;;;;4.07;2.20;;;;;;;19.90;64.80;98629.94;10467689;28;20215;-88
2022/05/23 17:22:34;;;;;;;5.75;2.83;;;;;;;19.52;66.69;98641.69;10468596;28;20256;-88
2022/05/23 17:27:36;;;;;;;3.97;2.60;;;;;;;19.81;65.27;98638.25;10451897;28;20240;-87
2022/05/23 17:32:39;;;;;;;5.32;3.33;;;;;;;19.49;66.04;98641.75;10468504;28;20175;-89
2022/05/23 17:37:42;;;;;;;5.40;3.63;;;;;;;19.20;68.19;98647.16;10484940;28;20207;-88
2022/05/23 17:42:45;;;;;;;9.25;4.25;;;;;;;19.69;65.77;98623.38;10468692;28;20537;-87
2022/05/23 17:47:47;;;;;;;6.63;3.75;;;;;;;19.60;66.62;98620.31;10471690;28;20554;-84
2022/05/23 17:52:50;;;;;;;13.45;4.38;;;;;;;19.79;66.88;98598.66;10486176;28;20241;-85
2022/05/23 17:57:52;;;;;;;8.05;4.80;;;;;;;19.85;65.75;98573.25;10462009;28;20617;-84
2022/05/23 18:02:57;;;;;;;7.18;4.43;;;;;;;19.58;66.10;98564.84;10479187;28;20203;-85
2022/05/23 18:08:02;;;;;;;6.75;4.78;;;;;;;19.84;65.88;98560.19;10503742;28;20534;-85
2022/05/23 18:13:05;;;;;;;6.22;4.82;;;;;;;19.24;67.67;98585.09;10500462;28;20248;-85
2022/05/23 18:19:08;;;;;;;10.98;5.72;;;;;;;19.79;65.87;98586.44;10477905;28;20222;-84
2022/05/23 18:23:53;;;;;;;6.63;5.15;;;;;;;19.89;64.73;98585.41;10493496;28;20198;-87
2022/05/23 18:29:00;;;;;;;6.15;4.63;;;;;;;19.79;65.00;98577.84;10486591;28;20199;-87
2022/05/23 18:34:02;;;;;;;10.60;5.45;;;;;;;19.69;65.55;98577.66;10482407;28;20630;-87
2022/05/23 18:39:05;;;;;;;9.00;5.35;;;;;;;19.32;66.42;98569.41;10497349;28;20210;-91
2022/05/23 18:44:08;;;;;;;7.57;5.30;;;;;;;19.86;64.64;98561.38;10481774;28;20256;-89
2022/05/23 18:54:32;;;;;;;8.75;5.43;;;;;;;19.23;66.67;98563.47;10502804;28;20288;-89
2022/05/23 18:59:34;;;;;;;8.93;5.50;;;;;;;19.52;64.51;98567.38;10491626;28;20501;-90
2022/05/23 19:04:36;;;;;;;7.38;5.30;;;;;;;19.30;65.66;98569.03;10470636;28;20668;-88
2022/05/23 19:09:39;;;;;;;6.72;5.07;;;;;;;19.19;65.83;98588.44;10448832;28;20248;-91
2022/05/23 19:14:43;;;;;;;7.65;4.82;;;;;;;19.13;65.73;98595.91;10453225;28;20192;-88
2022/05/23 19:19:46;;;;;;;8.25;4.65;;;;;;;19.71;63.46;98612.31;10456659;28;20640;-90
2022/05/23 19:24:48;;;;;;;5.57;4.10;;;;;;;18.64;66.68;98615.47;10483795;28;20242;-87
2022/05/23 19:29:54;;;;;;;6.47;4.70;;;;;;;19.12;64.74;98611.44;10459154;28;20184;-90
2022/05/23 19:34:56;;;;;;;7.53;4.38;;;;;;;18.50;66.56;98622.19;10473641;28;20199;-87
2022/05/23 19:39:59;;;;;;;7.15;4.05;;;;;;;18.72;65.98;98639.81;10455488;28;20223;-86
2022/05/23 19:45:01;;;;;;;5.88;3.53;;;;;;;18.81;64.96;98650.66;10449459;28;20207;-87
2022/05/23 19:50:04;;;;;;;6.70;3.85;;;;;;;18.20;67.42;98645.84;10470218;28;20273;-90
2022/05/23 19:55:07;;;;;;;6.07;4.13;;;;;;;19.58;63.27;98639.94;10464528;28;20254;-89
2022/05/23 20:00:10;;;;;;;7.38;3.75;;;;;;;19.17;64.28;98648.84;10455802;28;20208;-89
2022/05/23 20:10:37;;;;;;;9.68;3.95;;;;;;;18.15;68.82;98700.50;10472072;28;20203;-90
2022/05/23 20:15:39;;;;;;;14.55;6.57;;;;;;;18.65;65.82;98696.97;10495476;28;20207;-88
2022/05/23 20:20:47;;;;;;;8.93;5.60;;;;;;;18.34;66.50;98710.47;10489239;28;20195;-89
2022/05/23 20:25:49;;;;;;;7.68;5.85;;;;;;;18.42;65.47;98722.59;10475114;28;20221;-88
2022/05/23 20:30:52;;;;;;;15.02;13.35;;;;;;;17.78;67.34;98758.34;10469065;28;20950;-91
2022/05/23 20:35:55;;;;;;;19.20;17.30;;;;;;;17.61;66.31;98788.63;10483220;28;20258;-91
2022/05/23 20:40:57;;;;;;;19.73;17.87;;;;;;;16.09;67.98;98818.72;10484062;28;20229;-86
2022/05/23 20:46:00;;;;;;;20.50;18.35;;;;;;;15.97;67.79;98841.88;10482112;28;20187;-87
2022/05/23 20:51:04;;;;;;;25.40;22.77;;;;;;;16.05;66.24;98869.06;10466457;28;20187;-86
2022/05/23 20:56:08;;;;;;;29.17;26.33;;;;;;;16.05;65.61;98860.53;10500010;28;20273;-91
2022/05/23 21:01:10;;;;;;;30.63;27.63;;;;;;;16.01;64.63;98876.81;10482509;28;20233;-88
2022/05/23 21:06:13;;;;;;;26.47;23.97;;;;;;;15.85;64.75;98894.25;10480780;28;20179;-89
2022/05/23 21:11:15;;;;;;;24.90;22.40;;;;;;;15.54;65.46;98914.13;10480640;28;20179;-83
2022/05/23 21:16:17;;;;;;;27.43;24.63;;;;;;;15.42;65.72;98918.94;10477615;28;20207;-84
2022/05/23 21:21:20;;;;;;;25.00;22.50;;;;;;;14.93;66.02;98928.13;10477781;28;20196;-85
2022/05/23 21:26:24;;;;;;;24.70;22.37;;;;;;;15.42;64.75;98935.97;10495085;28;20234;-85
2022/05/23 21:31:27;;;;;;;21.93;19.93;;;;;;;15.41;64.01;98950.56;10461451;28;20184;-85
2022/05/23 21:36:30;;;;;;;20.53;18.30;;;;;;;14.92;63.86;98954.88;10477749;28;20199;-82
2022/05/23 21:46:54;;;;;;;21.77;19.57;;;;;;;15.47;62.56;98992.38;10487600;28;20187;-87
2022/05/23 21:51:57;;;;;;;22.38;20.27;;;;;;;15.08;63.13;99005.63;10464995;28;20607;-85
2022/05/23 21:56:59;;;;;;;26.27;22.90;;;;;;;15.01;63.73;99008.41;10421630;28;20286;-85
2022/05/23 22:02:03;;;;;;;25.88;23.15;;;;;;;15.20;64.00;99016.63;10394715;28;20192;-85
2022/05/23 22:07:06;;;;;;;25.37;22.80;;;;;;;15.23;62.62;99020.69;10396220;28;20239;-84
2022/05/23 22:12:09;;;;;;;20.40;18.30;;;;;;;15.27;62.69;99038.53;10412033;28;20188;-87
2022/05/23 22:17:11;;;;;;;15.17;13.57;;;;;;;14.20;63.05;99042.69;10396691;28;20264;-85
2022/05/23 22:22:15;;;;;;;14.73;13.27;;;;;;;14.85;63.52;99050.50;10403320;28;20196;-85
2022/05/23 22:27:20;;;;;;;16.20;12.80;;;;;;;15.55;59.90;99049.22;10403738;28;20184;-84
2022/05/23 22:32:24;;;;;;;13.90;12.43;;;;;;;15.48;60.51;99059.31;10409085;28;20247;-87
2022/05/23 22:37:26;;;;;;;17.07;14.23;;;;;;;15.58;60.61;99059.78;10410288;28;20212;-83
2022/05/23 22:42:28;;;;;;;16.47;14.83;;;;;;;16.34;57.39;99070.91;10432085;28;20481;-84
2022/05/23 22:47:30;;;;;;;17.10;15.30;;;;;;;15.25;60.53;99081.50;10409500;28;20189;-83
2022/05/23 22:52:35;;;;;;;18.97;16.40;;;;;;;15.79;59.39;99088.25;10409950;28;20208;-88
2022/05/23 22:57:38;;;;;;;15.60;14.10;;;;;;;15.28;59.85;99092.06;10441856;28;20277;-87
2022/05/23 23:08:02;;;;;;;16.97;15.20;;;;;;;15.52;59.21;99097.09;10467053;28;20210;-85
2022/05/23 23:13:06;;;;;;;17.23;14.47;;;;;;;15.93;58.52;99096.81;10449123;28;20192;-89
2022/05/23 23:18:08;;;;;;;16.73;14.60;;;;;;;15.87;59.75;99106.97;10473613;28;20238;-84
2022/05/23 23:23:10;;;;;;;14.57;12.43;;;;;;;15.86;58.18;99111.84;10436881;28;20191;-87
2022/05/23 23:28:12;;;;;;;12.83;11.30;;;;;;;15.24;60.96;99124.50;10431655;28;20196;-84
2022/05/23 23:38:35;;;;;;;13.07;10.80;;;;;;;15.22;60.41;99133.41;10450607;28;20212;-87
2022/05/23 23:43:37;;;;;;;14.07;12.68;;;;;;;15.23;60.74;99137.88;10447068;28;20253;-82
2022/05/23 23:48:39;;;;;;;14.70;11.53;;;;;;;15.65;59.36;99134.47;10446799;28;20188;-83
2022/05/23 23:53:42;;;;;;;13.57;11.37;;;;;;;15.63;59.03;99134.03;10429296;28;20220;-84
2022/05/23 23:58:44;;;;;;;12.33;10.90;;;;;;;15.80;59.49;99119.09;10429716;28;20635;-83
